sensor_id;sensor_type;location;lat;lon;timestamp;pressure;altitude;pressure_sealevel;temperature;humidity
44453;BME280;30155;52.164;21.236;2022-12-17T00:00:22;100555.41;;;-3.02;83.01
44453;BME280;30155;52.164;21.236;2022-12-17T00:05:32;100559.33;;;-3.08;83.06
44453;BME280;30155;52.164;21.236;2022-12-17T00:10:41;100578.66;;;-3.10;83.02
44453;BME280;30155;52.164;21.236;2022-12-17T00:15:52;100571.82;;;-3.11;83.04
44453;BME280;30155;52.164;21.236;2022-12-17T00:21:01;100596.27;;;-3.13;83.02
44453;BME280;30155;52.164;21.236;2022-12-17T00:26:11;100609.86;;;-3.12;83.11
44453;BME280;30155;52.164;21.236;2022-12-17T00:31:22;100616.81;;;-3.10;83.19
44453;BME280;30155;52.164;21.236;2022-12-17T00:36:33;100626.98;;;-3.10;83.08
44453;BME280;30155;52.164;21.236;2022-12-17T00:41:43;100629.27;;;-3.08;83.13
44453;BME280;30155;52.164;21.236;2022-12-17T00:46:53;100627.89;;;-3.09;83.11
44453;BME280;30155;52.164;21.236;2022-12-17T00:52:03;100619.35;;;-3.10;83.04
44453;BME280;30155;52.164;21.236;2022-12-17T00:57:13;100617.32;;;-3.09;83.12
44453;BME280;30155;52.164;21.236;2022-12-17T01:02:23;100612.63;;;-3.09;83.18
44453;BME280;30155;52.164;21.236;2022-12-17T01:07:33;100631.82;;;-3.08;83.25
44453;BME280;30155;52.164;21.236;2022-12-17T01:12:43;100630.33;;;-3.11;83.04
44453;BME280;30155;52.164;21.236;2022-12-17T01:17:53;100629.45;;;-3.11;83.21
44453;BME280;30155;52.164;21.236;2022-12-17T01:23:07;100622.47;;;-3.14;83.11
44453;BME280;30155;52.164;21.236;2022-12-17T01:28:22;100641.06;;;-3.15;83.27
44453;BME280;30155;52.164;21.236;2022-12-17T01:33:32;100646.16;;;-3.15;83.09
44453;BME280;30155;52.164;21.236;2022-12-17T01:38:43;100646.80;;;-3.17;83.26
44453;BME280;30155;52.164;21.236;2022-12-17T01:43:53;100643.75;;;-3.18;83.24
44453;BME280;30155;52.164;21.236;2022-12-17T01:49:03;100652.00;;;-3.16;83.29
44453;BME280;30155;52.164;21.236;2022-12-17T01:54:13;100638.66;;;-3.18;83.30
44453;BME280;30155;52.164;21.236;2022-12-17T01:59:31;100647.20;;;-3.18;83.37
44453;BME280;30155;52.164;21.236;2022-12-17T02:04:59;100665.48;;;-3.17;83.30
44453;BME280;30155;52.164;21.236;2022-12-17T02:10:37;100660.67;;;-3.19;83.36
44453;BME280;30155;52.164;21.236;2022-12-17T02:15:59;100662.94;;;-3.17;83.40
44453;BME280;30155;52.164;21.236;2022-12-17T02:21:05;100663.62;;;-3.19;83.17
44453;BME280;30155;52.164;21.236;2022-12-17T02:26:36;100665.82;;;-3.24;83.11
44453;BME280;30155;52.164;21.236;2022-12-17T02:31:50;100663.08;;;-3.27;83.26
44453;BME280;30155;52.164;21.236;2022-12-17T02:37:02;100650.37;;;-3.27;83.24
44453;BME280;30155;52.164;21.236;2022-12-17T02:42:11;100642.23;;;-3.28;83.23
44453;BME280;30155;52.164;21.236;2022-12-17T02:47:23;100646.33;;;-3.30;83.32
44453;BME280;30155;52.164;21.236;2022-12-17T02:52:41;100655.98;;;-3.31;83.17
44453;BME280;30155;52.164;21.236;2022-12-17T02:57:53;100666.05;;;-3.33;83.36
44453;BME280;30155;52.164;21.236;2022-12-17T03:03:03;100666.84;;;-3.34;83.14
44453;BME280;30155;52.164;21.236;2022-12-17T03:08:12;100672.32;;;-3.34;83.27
44453;BME280;30155;52.164;21.236;2022-12-17T03:13:25;100676.38;;;-3.36;83.24
44453;BME280;30155;52.164;21.236;2022-12-17T03:18:38;100668.75;;;-3.36;83.25
44453;BME280;30155;52.164;21.236;2022-12-17T03:23:48;100663.84;;;-3.40;83.20
44453;BME280;30155;52.164;21.236;2022-12-17T03:28:58;100666.34;;;-3.47;83.11
44453;BME280;30155;52.164;21.236;2022-12-17T03:34:08;100669.17;;;-3.49;83.17
44453;BME280;30155;52.164;21.236;2022-12-17T03:39:19;100663.69;;;-3.48;83.33
44453;BME280;30155;52.164;21.236;2022-12-17T03:44:29;100660.47;;;-3.46;83.33
44453;BME280;30155;52.164;21.236;2022-12-17T03:49:38;100663.86;;;-3.52;83.15
44453;BME280;30155;52.164;21.236;2022-12-17T03:54:48;100653.69;;;-3.52;83.26
44453;BME280;30155;52.164;21.236;2022-12-17T03:59:57;100658.27;;;-3.53;83.37
44453;BME280;30155;52.164;21.236;2022-12-17T04:05:07;100661.20;;;-3.53;83.44
44453;BME280;30155;52.164;21.236;2022-12-17T04:10:17;100658.66;;;-3.53;83.22
44453;BME280;30155;52.164;21.236;2022-12-17T04:15:27;100660.86;;;-3.58;83.33
44453;BME280;30155;52.164;21.236;2022-12-17T04:20:37;100671.02;;;-3.58;83.41
44453;BME280;30155;52.164;21.236;2022-12-17T04:25:48;100682.97;;;-3.57;83.33
44453;BME280;30155;52.164;21.236;2022-12-17T04:30:58;100686.07;;;-3.61;83.29
44453;BME280;30155;52.164;21.236;2022-12-17T04:36:08;100706.52;;;-3.59;83.29
44453;BME280;30155;52.164;21.236;2022-12-17T04:41:18;100704.73;;;-3.60;83.13
44453;BME280;30155;52.164;21.236;2022-12-17T04:46:29;100726.50;;;-3.64;83.14
44453;BME280;30155;52.164;21.236;2022-12-17T04:51:40;100750.13;;;-3.65;83.11
44453;BME280;30155;52.164;21.236;2022-12-17T04:56:52;100768.95;;;-3.63;83.16
44453;BME280;30155;52.164;21.236;2022-12-17T05:02:02;100775.78;;;-3.62;83.16
44453;BME280;30155;52.164;21.236;2022-12-17T05:07:11;100782.77;;;-3.59;83.17
44453;BME280;30155;52.164;21.236;2022-12-17T05:12:21;100788.33;;;-3.58;83.13
44453;BME280;30155;52.164;21.236;2022-12-17T05:17:31;100778.68;;;-3.57;83.16
44453;BME280;30155;52.164;21.236;2022-12-17T05:22:33;100774.98;;;-3.56;83.14
44453;BME280;30155;52.164;21.236;2022-12-17T05:27:45;100780.06;;;-3.56;83.06
44453;BME280;30155;52.164;21.236;2022-12-17T05:33:02;100792.66;;;-3.57;83.00
44453;BME280;30155;52.164;21.236;2022-12-17T05:38:12;100791.27;;;-3.59;82.91
44453;BME280;30155;52.164;21.236;2022-12-17T05:43:23;100792.81;;;-3.61;82.89
44453;BME280;30155;52.164;21.236;2022-12-17T05:48:33;100794.36;;;-3.63;82.83
44453;BME280;30155;52.164;21.236;2022-12-17T05:53:33;100785.63;;;-3.67;82.88
44453;BME280;30155;52.164;21.236;2022-12-17T05:58:45;100790.95;;;-3.69;82.82
44453;BME280;30155;52.164;21.236;2022-12-17T06:03:55;100800.99;;;-3.70;82.70
44453;BME280;30155;52.164;21.236;2022-12-17T06:09:05;100810.44;;;-3.74;82.80
44453;BME280;30155;52.164;21.236;2022-12-17T06:14:15;100808.29;;;-3.75;82.79
44453;BME280;30155;52.164;21.236;2022-12-17T06:19:25;100809.20;;;-3.79;82.48
44453;BME280;30155;52.164;21.236;2022-12-17T06:24:34;100809.75;;;-3.84;82.67
44453;BME280;30155;52.164;21.236;2022-12-17T06:29:44;100821.45;;;-3.86;82.70
44453;BME280;30155;52.164;21.236;2022-12-17T06:35:00;100829.20;;;-3.84;82.83
44453;BME280;30155;52.164;21.236;2022-12-17T06:40:09;100854.96;;;-3.85;82.73
44453;BME280;30155;52.164;21.236;2022-12-17T06:45:19;100864.89;;;-3.82;82.75
44453;BME280;30155;52.164;21.236;2022-12-17T06:50:32;100873.27;;;-3.84;82.61
44453;BME280;30155;52.164;21.236;2022-12-17T06:55:44;100873.27;;;-3.84;82.61
44453;BME280;30155;52.164;21.236;2022-12-17T07:00:55;100854.20;;;-3.84;82.70
44453;BME280;30155;52.164;21.236;2022-12-17T07:06:05;100878.95;;;-3.81;82.69
44453;BME280;30155;52.164;21.236;2022-12-17T07:11:14;100894.83;;;-3.78;82.69
44453;BME280;30155;52.164;21.236;2022-12-17T07:16:24;100886.33;;;-3.79;82.61
44453;BME280;30155;52.164;21.236;2022-12-17T07:21:34;100890.75;;;-3.76;82.59
44453;BME280;30155;52.164;21.236;2022-12-17T07:26:43;100891.48;;;-3.72;82.40
44453;BME280;30155;52.164;21.236;2022-12-17T07:31:53;100888.18;;;-3.71;82.27
44453;BME280;30155;52.164;21.236;2022-12-17T07:37:03;100902.64;;;-3.70;82.34
44453;BME280;30155;52.164;21.236;2022-12-17T07:42:13;100905.82;;;-3.68;82.30
44453;BME280;30155;52.164;21.236;2022-12-17T07:47:22;100916.50;;;-3.67;82.25
44453;BME280;30155;52.164;21.236;2022-12-17T07:52:32;100928.81;;;-3.66;82.22
44453;BME280;30155;52.164;21.236;2022-12-17T07:57:41;100923.34;;;-3.66;81.98
44453;BME280;30155;52.164;21.236;2022-12-17T08:02:58;100933.90;;;-3.66;81.93
44453;BME280;30155;52.164;21.236;2022-12-17T08:08:10;100931.63;;;-3.68;81.65
44453;BME280;30155;52.164;21.236;2022-12-17T08:13:20;100935.17;;;-3.66;81.86
44453;BME280;30155;52.164;21.236;2022-12-17T08:18:30;100937.17;;;-3.62;81.79
44453;BME280;30155;52.164;21.236;2022-12-17T08:23:41;100945.31;;;-3.61;81.70
44453;BME280;30155;52.164;21.236;2022-12-17T08:28:50;100944.31;;;-3.63;81.44
44453;BME280;30155;52.164;21.236;2022-12-17T08:34:00;100945.94;;;-3.64;81.62
44453;BME280;30155;52.164;21.236;2022-12-17T08:39:09;100954.48;;;-3.63;81.46
44453;BME280;30155;52.164;21.236;2022-12-17T08:44:19;100954.69;;;-3.60;81.41
44453;BME280;30155;52.164;21.236;2022-12-17T08:49:29;100971.97;;;-3.56;81.45
44453;BME280;30155;52.164;21.236;2022-12-17T08:54:38;100988.59;;;-3.54;81.31
44453;BME280;30155;52.164;21.236;2022-12-17T08:59:48;100999.94;;;-3.56;81.17
44453;BME280;30155;52.164;21.236;2022-12-17T09:04:58;101002.10;;;-3.60;81.01
44453;BME280;30155;52.164;21.236;2022-12-17T09:10:10;101006.04;;;-3.59;81.05
44453;BME280;30155;52.164;21.236;2022-12-17T09:15:19;101005.02;;;-3.56;81.02
44453;BME280;30155;52.164;21.236;2022-12-17T09:20:29;101004.50;;;-3.57;80.70
44453;BME280;30155;52.164;21.236;2022-12-17T09:25:39;101001.20;;;-3.56;80.70
44453;BME280;30155;52.164;21.236;2022-12-17T09:30:48;101017.90;;;-3.42;80.84
44453;BME280;30155;52.164;21.236;2022-12-17T09:35:58;101023.36;;;-3.38;80.42
44453;BME280;30155;52.164;21.236;2022-12-17T09:46:47;101027.77;;;-3.35;80.30
44453;BME280;30155;52.164;21.236;2022-12-17T09:51:57;101021.69;;;-3.37;80.22
44453;BME280;30155;52.164;21.236;2022-12-17T09:57:09;101023.36;;;-3.38;80.21
44453;BME280;30155;52.164;21.236;2022-12-17T10:02:29;101025.21;;;-3.30;80.38
44453;BME280;30155;52.164;21.236;2022-12-17T10:07:42;101042.56;;;-3.19;80.41
44453;BME280;30155;52.164;21.236;2022-12-17T10:12:37;101037.23;;;-3.22;79.84
44453;BME280;30155;52.164;21.236;2022-12-17T10:17:47;101033.27;;;-3.19;79.92
44453;BME280;30155;52.164;21.236;2022-12-17T10:22:56;101037.55;;;-3.08;79.84
44453;BME280;30155;52.164;21.236;2022-12-17T10:28:09;101041.30;;;-3.02;79.97
44453;BME280;30155;52.164;21.236;2022-12-17T10:33:20;101057.36;;;-3.03;79.62
44453;BME280;30155;52.164;21.236;2022-12-17T10:38:30;101080.64;;;-3.04;79.59
44453;BME280;30155;52.164;21.236;2022-12-17T10:43:40;101077.71;;;-3.03;79.71
44453;BME280;30155;52.164;21.236;2022-12-17T10:48:50;101081.28;;;-3.07;79.33
44453;BME280;30155;52.164;21.236;2022-12-17T10:54:04;101098.11;;;-3.14;79.19
44453;BME280;30155;52.164;21.236;2022-12-17T10:59:36;101074.22;;;-3.16;79.24
44453;BME280;30155;52.164;21.236;2022-12-17T11:04:51;101080.84;;;-3.18;79.52
44453;BME280;30155;52.164;21.236;2022-12-17T11:10:02;101084.66;;;-3.18;79.34
44453;BME280;30155;52.164;21.236;2022-12-17T11:15:31;101077.03;;;-3.18;79.31
44453;BME280;30155;52.164;21.236;2022-12-17T11:21:08;101087.49;;;-3.25;78.80
44453;BME280;30155;52.164;21.236;2022-12-17T11:26:17;101087.14;;;-3.35;79.26
44453;BME280;30155;52.164;21.236;2022-12-17T11:42:37;101101.80;;;-3.42;79.00
44453;BME280;30155;52.164;21.236;2022-12-17T11:58:48;101111.00;;;-3.60;79.58
44453;BME280;30155;52.164;21.236;2022-12-17T12:09:44;101123.50;;;-3.63;79.30
44453;BME280;30155;52.164;21.236;2022-12-17T12:15:09;101133.55;;;-3.70;79.48
44453;BME280;30155;52.164;21.236;2022-12-17T12:26:14;101140.03;;;-3.73;79.44
44453;BME280;30155;52.164;21.236;2022-12-17T12:31:42;101152.48;;;-3.76;79.06
44453;BME280;30155;52.164;21.236;2022-12-17T12:36:49;101157.83;;;-3.84;79.38
44453;BME280;30155;52.164;21.236;2022-12-17T12:42:11;101171.55;;;-3.92;79.29
44453;BME280;30155;52.164;21.236;2022-12-17T12:47:39;101175.74;;;-3.92;79.38
44453;BME280;30155;52.164;21.236;2022-12-17T12:52:47;101187.83;;;-3.90;79.67
44453;BME280;30155;52.164;21.236;2022-12-17T12:58:19;101190.59;;;-3.87;79.36
44453;BME280;30155;52.164;21.236;2022-12-17T13:09:36;101196.33;;;-3.79;79.29
44453;BME280;30155;52.164;21.236;2022-12-17T13:19:38;101194.15;;;-3.85;79.22
44453;BME280;30155;52.164;21.236;2022-12-17T13:24:37;101194.67;;;-3.89;79.23
44453;BME280;30155;52.164;21.236;2022-12-17T13:29:33;101197.47;;;-3.96;79.02
44453;BME280;30155;52.164;21.236;2022-12-17T13:39:48;101195.58;;;-3.98;79.33
44453;BME280;30155;52.164;21.236;2022-12-17T13:44:43;101201.54;;;-3.98;79.65
44453;BME280;30155;52.164;21.236;2022-12-17T13:49:35;101203.55;;;-3.99;79.62
44453;BME280;30155;52.164;21.236;2022-12-17T13:54:26;101214.37;;;-4.02;79.48
44453;BME280;30155;52.164;21.236;2022-12-17T13:59:20;101216.77;;;-4.08;79.31
44453;BME280;30155;52.164;21.236;2022-12-17T14:04:25;101222.73;;;-4.23;79.18
44453;BME280;30155;52.164;21.236;2022-12-17T14:09:19;101236.18;;;-4.34;79.50
44453;BME280;30155;52.164;21.236;2022-12-17T14:14:38;101239.59;;;-4.39;79.82
44453;BME280;30155;52.164;21.236;2022-12-17T14:19:32;101242.09;;;-4.49;79.59
44453;BME280;30155;52.164;21.236;2022-12-17T14:24:25;101249.80;;;-4.58;79.76
44453;BME280;30155;52.164;21.236;2022-12-17T14:29:30;101257.30;;;-4.65;79.64
44453;BME280;30155;52.164;21.236;2022-12-17T14:34:22;101265.88;;;-4.73;79.76
44453;BME280;30155;52.164;21.236;2022-12-17T14:39:23;101276.02;;;-4.73;79.92
44453;BME280;30155;52.164;21.236;2022-12-17T14:44:27;101286.17;;;-4.73;80.00
44453;BME280;30155;52.164;21.236;2022-12-17T14:49:20;101291.47;;;-4.80;79.90
44453;BME280;30155;52.164;21.236;2022-12-17T14:59:37;101301.89;;;-4.77;80.29
44453;BME280;30155;52.164;21.236;2022-12-17T15:04:31;101303.91;;;-4.78;79.92
44453;BME280;30155;52.164;21.236;2022-12-17T15:09:22;101302.61;;;-4.83;80.03
44453;BME280;30155;52.164;21.236;2022-12-17T15:14:14;101309.83;;;-4.88;79.85
44453;BME280;30155;52.164;21.236;2022-12-17T15:19:05;101321.11;;;-4.89;80.17
44453;BME280;30155;52.164;21.236;2022-12-17T15:23:56;101329.21;;;-4.88;80.09
44453;BME280;30155;52.164;21.236;2022-12-17T15:28:47;101324.91;;;-4.89;80.03
44453;BME280;30155;52.164;21.236;2022-12-17T15:33:39;101333.27;;;-4.90;80.14
44453;BME280;30155;52.164;21.236;2022-12-17T15:38:33;101329.95;;;-4.94;80.01
44453;BME280;30155;52.164;21.236;2022-12-17T15:43:24;101332.45;;;-5.00;80.00
44453;BME280;30155;52.164;21.236;2022-12-17T15:48:17;101336.02;;;-4.98;80.20
44453;BME280;30155;52.164;21.236;2022-12-17T15:53:10;101341.58;;;-5.02;80.00
44453;BME280;30155;52.164;21.236;2022-12-17T15:58:04;101355.48;;;-5.07;80.12
44453;BME280;30155;52.164;21.236;2022-12-17T16:02:56;101351.19;;;-5.08;80.20
44453;BME280;30155;52.164;21.236;2022-12-17T16:07:47;101370.56;;;-5.08;80.25
44453;BME280;30155;52.164;21.236;2022-12-17T16:12:40;101379.19;;;-5.11;80.17
44453;BME280;30155;52.164;21.236;2022-12-17T16:17:31;101373.16;;;-5.17;80.23
44453;BME280;30155;52.164;21.236;2022-12-17T16:22:23;101374.56;;;-5.15;80.36
44453;BME280;30155;52.164;21.236;2022-12-17T16:27:14;101384.66;;;-5.21;80.35
44453;BME280;30155;52.164;21.236;2022-12-17T16:32:07;101391.39;;;-5.21;80.11
44453;BME280;30155;52.164;21.236;2022-12-17T16:36:58;101393.78;;;-5.23;80.43
44453;BME280;30155;52.164;21.236;2022-12-17T16:41:51;101403.67;;;-5.26;80.27
44453;BME280;30155;52.164;21.236;2022-12-17T16:46:43;101401.73;;;-5.28;80.33
44453;BME280;30155;52.164;21.236;2022-12-17T16:51:35;101405.77;;;-5.30;80.23
44453;BME280;30155;52.164;21.236;2022-12-17T16:56:27;101422.48;;;-5.32;80.13
44453;BME280;30155;52.164;21.236;2022-12-17T17:01:20;101431.36;;;-5.32;80.21
44453;BME280;30155;52.164;21.236;2022-12-17T17:06:14;101431.36;;;-5.32;80.21
44453;BME280;30155;52.164;21.236;2022-12-17T17:11:18;101439.46;;;-5.31;80.25
44453;BME280;30155;52.164;21.236;2022-12-17T17:16:14;101444.83;;;-5.28;80.48
44453;BME280;30155;52.164;21.236;2022-12-17T17:21:14;101447.50;;;-5.27;80.35
44453;BME280;30155;52.164;21.236;2022-12-17T17:26:08;101460.92;;;-5.28;80.28
44453;BME280;30155;52.164;21.236;2022-12-17T17:31:01;101470.56;;;-5.29;80.39
44453;BME280;30155;52.164;21.236;2022-12-17T17:35:53;101480.31;;;-5.28;80.23
44453;BME280;30155;52.164;21.236;2022-12-17T17:40:45;101490.64;;;-5.36;80.13
44453;BME280;30155;52.164;21.236;2022-12-17T17:45:36;101489.31;;;-5.41;80.11
44453;BME280;30155;52.164;21.236;2022-12-17T17:50:29;101493.06;;;-5.46;80.05
44453;BME280;30155;52.164;21.236;2022-12-17T17:55:20;101483.92;;;-5.49;80.09
44453;BME280;30155;52.164;21.236;2022-12-17T18:00:12;101490.11;;;-5.50;80.25
44453;BME280;30155;52.164;21.236;2022-12-17T18:05:04;101495.59;;;-5.46;80.28
44453;BME280;30155;52.164;21.236;2022-12-17T18:09:55;101503.81;;;-5.48;80.08
44453;BME280;30155;52.164;21.236;2022-12-17T18:14:48;101510.00;;;-5.50;80.14
44453;BME280;30155;52.164;21.236;2022-12-17T18:19:39;101516.05;;;-5.53;79.99
44453;BME280;30155;52.164;21.236;2022-12-17T18:24:30;101528.80;;;-5.57;80.02
44453;BME280;30155;52.164;21.236;2022-12-17T18:29:23;101539.02;;;-5.60;79.90
44453;BME280;30155;52.164;21.236;2022-12-17T18:34:19;101540.82;;;-5.59;80.03
44453;BME280;30155;52.164;21.236;2022-12-17T18:39:18;101553.11;;;-5.59;80.03
44453;BME280;30155;52.164;21.236;2022-12-17T18:44:09;101566.16;;;-5.59;80.11
44453;BME280;30155;52.164;21.236;2022-12-17T18:49:04;101570.70;;;-5.60;80.13
44453;BME280;30155;52.164;21.236;2022-12-17T18:53:59;101590.73;;;-5.58;80.26
44453;BME280;30155;52.164;21.236;2022-12-17T18:58:52;101591.27;;;-5.57;80.22
44453;BME280;30155;52.164;21.236;2022-12-17T19:03:44;101595.80;;;-5.58;80.29
44453;BME280;30155;52.164;21.236;2022-12-17T19:08:35;101595.06;;;-5.57;80.28
44453;BME280;30155;52.164;21.236;2022-12-17T19:13:26;101608.27;;;-5.56;80.23
44453;BME280;30155;52.164;21.236;2022-12-17T19:18:17;101600.13;;;-5.57;80.30
44453;BME280;30155;52.164;21.236;2022-12-17T19:23:08;101608.70;;;-5.60;79.97
44453;BME280;30155;52.164;21.236;2022-12-17T19:28:00;101612.43;;;-5.65;80.01
44453;BME280;30155;52.164;21.236;2022-12-17T19:32:51;101629.66;;;-5.66;80.19
44453;BME280;30155;52.164;21.236;2022-12-17T19:37:42;101619.00;;;-5.67;80.20
44453;BME280;30155;52.164;21.236;2022-12-17T19:42:33;101631.44;;;-5.65;80.37
44453;BME280;30155;52.164;21.236;2022-12-17T19:47:25;101627.13;;;-5.66;80.36
44453;BME280;30155;52.164;21.236;2022-12-17T19:52:16;101637.42;;;-5.65;80.31
44453;BME280;30155;52.164;21.236;2022-12-17T19:57:07;101646.44;;;-5.63;80.61
44453;BME280;30155;52.164;21.236;2022-12-17T20:01:59;101654.55;;;-5.62;80.44
44453;BME280;30155;52.164;21.236;2022-12-17T20:06:52;101657.84;;;-5.63;80.51
44453;BME280;30155;52.164;21.236;2022-12-17T20:11:43;101666.98;;;-5.60;80.61
44453;BME280;30155;52.164;21.236;2022-12-17T20:16:44;101670.05;;;-5.59;80.72
44453;BME280;30155;52.164;21.236;2022-12-17T20:21:34;101659.30;;;-5.57;80.79
44453;BME280;30155;52.164;21.236;2022-12-17T20:26:26;101664.52;;;-5.55;80.77
44453;BME280;30155;52.164;21.236;2022-12-17T20:31:20;101675.70;;;-5.53;80.87
44453;BME280;30155;52.164;21.236;2022-12-17T20:36:14;101681.69;;;-5.52;80.87
44453;BME280;30155;52.164;21.236;2022-12-17T20:41:15;101684.22;;;-5.52;80.82
44453;BME280;30155;52.164;21.236;2022-12-17T20:46:10;101692.70;;;-5.52;81.07
44453;BME280;30155;52.164;21.236;2022-12-17T20:51:20;101706.19;;;-5.48;81.20
44453;BME280;30155;52.164;21.236;2022-12-17T20:56:12;101705.45;;;-5.47;81.06
44453;BME280;30155;52.164;21.236;2022-12-17T21:01:08;101710.06;;;-5.43;81.31
44453;BME280;30155;52.164;21.236;2022-12-17T21:06:14;101716.40;;;-5.43;81.24
44453;BME280;30155;52.164;21.236;2022-12-17T21:11:08;101729.38;;;-5.40;81.31
44453;BME280;30155;52.164;21.236;2022-12-17T21:16:03;101737.48;;;-5.39;81.33
44453;BME280;30155;52.164;21.236;2022-12-17T21:21:07;101740.70;;;-5.36;81.44
44453;BME280;30155;52.164;21.236;2022-12-17T21:26:10;101758.66;;;-5.29;81.70
44453;BME280;30155;52.164;21.236;2022-12-17T21:31:04;101752.12;;;-5.27;81.31
44453;BME280;30155;52.164;21.236;2022-12-17T21:36:04;101753.39;;;-5.27;81.45
44453;BME280;30155;52.164;21.236;2022-12-17T21:40:55;101754.66;;;-5.27;81.38
44453;BME280;30155;52.164;21.236;2022-12-17T21:45:47;101764.56;;;-5.25;81.55
44453;BME280;30155;52.164;21.236;2022-12-17T21:50:41;101775.75;;;-5.23;81.70
44453;BME280;30155;52.164;21.236;2022-12-17T21:55:33;101767.41;;;-5.22;81.74
44453;BME280;30155;52.164;21.236;2022-12-17T22:00:24;101774.62;;;-5.22;81.76
44453;BME280;30155;52.164;21.236;2022-12-17T22:05:16;101773.75;;;-5.22;81.75
44453;BME280;30155;52.164;21.236;2022-12-17T22:10:08;101783.66;;;-5.20;81.87
44453;BME280;30155;52.164;21.236;2022-12-17T22:14:59;101779.78;;;-5.17;82.04
44453;BME280;30155;52.164;21.236;2022-12-17T22:19:50;101776.63;;;-5.14;81.91
44453;BME280;30155;52.164;21.236;2022-12-17T22:24:41;101788.58;;;-5.13;81.94
44453;BME280;30155;52.164;21.236;2022-12-17T22:29:32;101789.92;;;-5.08;82.12
44453;BME280;30155;52.164;21.236;2022-12-17T22:34:42;101790.42;;;-5.07;81.96
44453;BME280;30155;52.164;21.236;2022-12-17T22:39:33;101797.06;;;-5.04;82.04
44453;BME280;30155;52.164;21.236;2022-12-17T22:44:24;101804.38;;;-5.07;81.85
44453;BME280;30155;52.164;21.236;2022-12-17T22:49:17;101814.21;;;-5.10;81.81
44453;BME280;30155;52.164;21.236;2022-12-17T22:54:10;101826.61;;;-5.13;81.59
44453;BME280;30155;52.164;21.236;2022-12-17T22:59:03;101829.38;;;-5.15;81.45
44453;BME280;30155;52.164;21.236;2022-12-17T23:03:55;101839.44;;;-5.20;81.61
44453;BME280;30155;52.164;21.236;2022-12-17T23:08:48;101837.86;;;-5.23;81.57
44453;BME280;30155;52.164;21.236;2022-12-17T23:13:41;101847.13;;;-5.24;81.57
44453;BME280;30155;52.164;21.236;2022-12-17T23:18:32;101863.95;;;-5.24;81.62
44453;BME280;30155;52.164;21.236;2022-12-17T23:23:24;101854.34;;;-5.23;81.73
44453;BME280;30155;52.164;21.236;2022-12-17T23:28:16;101860.45;;;-5.21;81.74
44453;BME280;30155;52.164;21.236;2022-12-17T23:33:07;101858.73;;;-5.17;81.71
44453;BME280;30155;52.164;21.236;2022-12-17T23:37:59;101849.28;;;-5.14;81.74
44453;BME280;30155;52.164;21.236;2022-12-17T23:42:50;101850.94;;;-5.15;81.57
44453;BME280;30155;52.164;21.236;2022-12-17T23:47:41;101857.78;;;-5.14;81.72
44453;BME280;30155;52.164;21.236;2022-12-17T23:52:33;101877.61;;;-5.10;81.84
44453;BME280;30155;52.164;21.236;2022-12-17T23:57:24;101875.08;;;-5.10;81.83
